createdAt,value
2023-01-02T00:00:43.747Z,87.66
2023-01-02T00:01:43.600Z,87.66
2023-01-02T00:02:43.878Z,87.95
2023-01-02T00:03:43.844Z,87.56
2023-01-02T00:04:43.581Z,87.47
2023-01-02T00:05:43.634Z,87.27
2023-01-02T00:06:43.611Z,86.70
2023-01-02T00:07:43.556Z,85.75
2023-01-02T00:08:43.541Z,86.41
2023-01-02T00:09:43.632Z,86.61
2023-01-02T00:10:43.574Z,86.04
2023-01-02T00:11:43.582Z,86.41
2023-01-02T00:12:43.532Z,86.22
2023-01-02T00:13:43.725Z,86.32
2023-01-02T00:14:43.519Z,86.22
2023-01-02T00:15:43.523Z,85.55
2023-01-02T00:16:43.505Z,85.98
2023-01-02T00:17:43.473Z,85.79
2023-01-02T00:18:43.521Z,85.94
2023-01-02T00:19:43.482Z,86.13
2023-01-02T00:20:43.476Z,85.41
2023-01-02T00:21:43.579Z,85.84
2023-01-02T00:22:43.443Z,85.65
2023-01-02T00:23:43.420Z,85.65
2023-01-02T00:24:43.533Z,85.75
2023-01-02T00:25:43.483Z,85.41
2023-01-02T00:26:43.433Z,85.31
2023-01-02T00:27:43.434Z,85.08
2023-01-02T00:28:43.456Z,86.04
2023-01-02T00:29:43.481Z,85.65
2023-01-02T00:30:43.505Z,86.13
2023-01-02T00:31:43.507Z,85.55
2023-01-02T00:32:43.391Z,85.65
2023-01-02T00:33:43.390Z,85.94
2023-01-02T00:34:43.431Z,86.22
2023-01-02T00:35:43.356Z,85.65
2023-01-02T00:36:43.435Z,85.94
2023-01-02T00:37:43.559Z,86.32
2023-01-02T00:38:43.355Z,86.32
2023-01-02T00:39:43.352Z,86.13
2023-01-02T00:40:43.521Z,86.41
2023-01-02T00:41:43.455Z,85.84
2023-01-02T00:42:43.330Z,86.41
2023-01-02T00:43:43.337Z,86.13
2023-01-02T00:44:43.331Z,85.84
2023-01-02T00:45:43.552Z,85.36
2023-01-02T00:46:43.295Z,85.65
2023-01-02T00:47:43.269Z,85.65
2023-01-02T00:48:43.354Z,85.65
2023-01-02T00:49:43.336Z,85.55
2023-01-02T00:50:43.333Z,85.55
2023-01-02T00:51:43.268Z,86.41
2023-01-02T00:52:43.241Z,86.13
2023-01-02T00:53:43.764Z,86.22
2023-01-02T00:54:43.207Z,86.32
2023-01-02T00:55:43.251Z,85.75
2023-01-02T00:56:43.265Z,85.94
2023-01-02T00:57:43.457Z,85.55
2023-01-02T00:58:43.203Z,85.65
2023-01-02T00:59:43.155Z,86.51
2023-01-02T01:00:43.339Z,85.94
2023-01-02T01:01:43.328Z,86.22
2023-01-02T01:02:43.302Z,85.27
2023-01-02T01:03:43.331Z,85.94
2023-01-02T01:04:43.217Z,85.84
2023-01-02T01:05:43.156Z,85.94
2023-01-02T01:06:43.197Z,85.75
2023-01-02T01:07:43.118Z,86.22
2023-01-02T01:08:43.209Z,85.46
2023-01-02T01:09:43.131Z,85.65
2023-01-02T01:10:43.113Z,86.04
2023-01-02T01:11:43.093Z,86.32
2023-01-02T01:12:43.302Z,85.46
2023-01-02T01:13:43.160Z,86.32
2023-01-02T01:14:43.039Z,85.65
2023-01-02T01:15:43.073Z,85.75
2023-01-02T01:16:43.189Z,86.04
2023-01-02T01:17:43.260Z,85.55
2023-01-02T01:18:43.111Z,85.75
2023-01-02T01:19:43.066Z,85.84
2023-01-02T01:20:43.024Z,86.04
2023-01-02T01:21:43.052Z,86.04
2023-01-02T01:22:43.074Z,85.75
2023-01-02T01:23:43.003Z,85.94
2023-01-02T01:24:43.060Z,86.13
2023-01-02T01:25:43.035Z,86.22
2023-01-02T01:26:43.075Z,85.99
2023-01-02T01:27:42.983Z,86.90
2023-01-02T01:28:43.039Z,86.57
2023-01-02T01:29:42.971Z,85.89
2023-01-02T01:30:43.000Z,85.75
2023-01-02T01:31:43.049Z,85.75
2023-01-02T01:32:43.007Z,86.13
2023-01-02T01:33:42.957Z,86.18
2023-01-02T01:34:42.955Z,85.65
2023-01-02T01:35:42.993Z,85.99
2023-01-02T01:36:42.917Z,86.18
2023-01-02T01:37:42.981Z,85.75
2023-01-02T01:38:42.957Z,86.04
2023-01-02T01:39:43.077Z,86.37
2023-01-02T01:40:43.249Z,86.94
2023-01-02T01:41:42.982Z,86.28
2023-01-02T01:42:42.932Z,86.08
2023-01-02T01:43:42.842Z,86.18
2023-01-02T01:44:42.934Z,86.28
2023-01-02T01:45:42.903Z,85.51
2023-01-02T01:46:43.025Z,86.08
2023-01-02T01:47:42.820Z,86.08
2023-01-02T01:48:42.806Z,85.89
2023-01-02T01:49:42.780Z,85.80
2023-01-02T01:50:42.767Z,85.84
2023-01-02T01:51:42.780Z,86.04
2023-01-02T01:52:42.776Z,85.55
2023-01-02T01:53:42.940Z,85.55
2023-01-02T01:54:42.799Z,84.98
2023-01-02T01:55:42.719Z,85.08
2023-01-02T01:56:42.732Z,85.36
2023-01-02T01:57:42.701Z,85.08
2023-01-02T01:58:42.724Z,85.08
2023-01-02T01:59:42.704Z,84.79
2023-01-02T02:00:42.777Z,84.88
2023-01-02T02:01:43.065Z,84.98
2023-01-02T02:02:42.936Z,84.98
2023-01-02T02:03:42.678Z,85.08
2023-01-02T02:04:42.756Z,85.27
2023-01-02T02:05:42.663Z,85.65
2023-01-02T02:06:42.988Z,85.51
2023-01-02T02:07:42.677Z,84.88
2023-01-02T02:08:42.658Z,85.08
2023-01-02T02:09:42.701Z,85.41
2023-01-02T02:10:42.648Z,85.32
2023-01-02T02:11:42.629Z,85.17
2023-01-02T02:12:42.623Z,84.88
2023-01-02T02:13:42.692Z,85.13
2023-01-02T02:14:42.624Z,85.22
2023-01-02T02:15:42.575Z,84.59
2023-01-02T02:16:42.604Z,84.69
2023-01-02T02:17:42.627Z,84.59
2023-01-02T02:18:42.593Z,84.59
2023-01-02T02:19:42.608Z,84.59
2023-01-02T02:20:42.639Z,84.59
2023-01-02T02:21:42.876Z,84.69
2023-01-02T02:22:42.544Z,85.32
2023-01-02T02:23:42.538Z,85.41
2023-01-02T02:24:42.523Z,85.08
2023-01-02T02:25:42.539Z,85.27
2023-01-02T02:26:42.766Z,84.59
2023-01-02T02:27:42.503Z,84.69
2023-01-02T02:28:42.551Z,84.88
2023-01-02T02:29:42.555Z,85.13
2023-01-02T02:30:42.563Z,84.31
2023-01-02T02:31:42.663Z,84.50
2023-01-02T02:32:42.493Z,84.79
2023-01-02T02:33:42.512Z,85.17
2023-01-02T02:34:42.536Z,84.84
2023-01-02T02:35:42.485Z,85.03
2023-01-02T02:36:42.488Z,85.17
2023-01-02T02:37:42.501Z,84.94
2023-01-02T02:38:42.400Z,84.55
2023-01-02T02:39:42.448Z,84.31
2023-01-02T02:40:42.420Z,84.31
2023-01-02T02:41:42.477Z,83.93
2023-01-02T02:42:42.412Z,84.50
2023-01-02T02:43:42.376Z,84.41
2023-01-02T02:44:42.374Z,84.17
2023-01-02T02:45:42.382Z,84.65
2023-01-02T02:46:42.387Z,84.55
2023-01-02T02:47:42.774Z,84.41
2023-01-02T02:48:46.565Z,84.65
2023-01-02T02:49:42.316Z,84.59
2023-01-02T02:50:42.334Z,84.17
2023-01-02T02:51:42.312Z,84.36
2023-01-02T02:52:42.288Z,84.36
2023-01-02T02:53:42.279Z,84.41
2023-01-02T02:54:42.294Z,84.84
2023-01-02T02:55:42.262Z,84.46
2023-01-02T02:56:42.339Z,84.59
2023-01-02T02:57:42.283Z,83.93
2023-01-02T02:58:42.290Z,84.12
2023-01-02T02:59:42.266Z,83.45
2023-01-02T03:00:42.339Z,82.87
2023-01-02T03:01:42.414Z,83.16
2023-01-02T03:02:42.424Z,83.16
2023-01-02T03:03:42.202Z,83.73
2023-01-02T03:04:42.260Z,83.16
2023-01-02T03:05:42.305Z,83.16
2023-01-02T03:06:42.197Z,83.16
2023-01-02T03:07:42.303Z,83.54
2023-01-02T03:08:42.422Z,83.36
2023-01-02T03:09:42.215Z,83.06
2023-01-02T03:10:42.196Z,82.87
2023-01-02T03:11:42.163Z,82.68
2023-01-02T03:12:42.160Z,82.87
2023-01-02T03:13:42.625Z,82.68
2023-01-02T03:14:42.177Z,82.68
2023-01-02T03:15:42.149Z,82.68
2023-01-02T03:16:42.324Z,82.78
2023-01-02T03:17:42.110Z,82.87
2023-01-02T03:18:42.079Z,82.87
2023-01-02T03:19:42.204Z,82.59
2023-01-02T03:20:42.120Z,82.78
2023-01-02T03:21:42.102Z,82.78
2023-01-02T03:22:42.094Z,82.59
2023-01-02T03:23:42.166Z,82.01
2023-01-02T03:24:42.044Z,81.63
2023-01-02T03:25:42.070Z,81.44
2023-01-02T03:26:42.051Z,82.01
2023-01-02T03:27:42.022Z,81.82
2023-01-02T03:28:42.030Z,82.30
2023-01-02T03:29:42.047Z,82.40
2023-01-02T03:30:42.112Z,82.20
2023-01-02T03:31:42.012Z,82.30
2023-01-02T03:32:42.038Z,82.11
2023-01-02T03:33:42.100Z,82.20
2023-01-02T03:34:41.963Z,82.97
2023-01-02T03:35:42.023Z,82.30
2023-01-02T03:36:41.970Z,82.64
2023-01-02T03:37:41.966Z,82.35
2023-01-02T03:38:42.159Z,82.20
2023-01-02T03:39:41.979Z,82.30
2023-01-02T03:40:42.006Z,81.82
2023-01-02T03:41:41.948Z,81.63
2023-01-02T03:42:41.921Z,82.20
2023-01-02T03:43:42.052Z,82.87
2023-01-02T03:44:41.942Z,82.30
2023-01-02T03:45:41.927Z,81.92
2023-01-02T03:46:41.897Z,82.17
2023-01-02T03:47:41.905Z,82.35
2023-01-02T03:48:41.854Z,82.20
2023-01-02T03:49:41.882Z,81.82
2023-01-02T03:50:41.850Z,81.44
2023-01-02T03:51:41.854Z,82.11
2023-01-02T03:52:41.837Z,81.54
2023-01-02T03:53:41.825Z,81.73
2023-01-02T03:54:41.817Z,81.44
2023-01-02T03:55:41.825Z,82.01
2023-01-02T03:56:41.781Z,81.54
2023-01-02T03:57:41.825Z,82.45
2023-01-02T03:58:41.837Z,82.17
2023-01-02T03:59:41.801Z,82.74
2023-01-02T04:00:41.786Z,82.07
2023-01-02T04:01:41.978Z,82.26
2023-01-02T04:02:41.829Z,82.74
2023-01-02T04:03:41.838Z,82.64
2023-01-02T04:04:46.849Z,82.45
2023-01-02T04:05:41.934Z,82.26
2023-01-02T04:06:41.777Z,81.59
2023-01-02T04:07:41.773Z,82.17
2023-01-02T04:08:41.743Z,81.30
2023-01-02T04:09:41.787Z,82.17
2023-01-02T04:10:41.744Z,81.63
2023-01-02T04:11:41.696Z,82.26
2023-01-02T04:12:41.820Z,82.07
2023-01-02T04:13:41.781Z,82.17
2023-01-02T04:14:41.757Z,82.35
2023-01-02T04:15:41.700Z,82.07
2023-01-02T04:16:41.710Z,81.97
2023-01-02T04:17:41.709Z,82.35
2023-01-02T04:18:46.621Z,82.35
2023-01-02T04:19:41.623Z,82.26
2023-01-02T04:20:41.691Z,82.07
2023-01-02T04:21:41.630Z,81.68
2023-01-02T04:22:41.619Z,81.97
2023-01-02T04:23:41.643Z,82.35
2023-01-02T04:24:41.826Z,82.07
2023-01-02T04:25:41.675Z,82.35
2023-01-02T04:26:41.635Z,82.17
2023-01-02T04:27:41.635Z,81.68
2023-01-02T04:28:41.570Z,81.68
2023-01-02T04:29:41.580Z,81.97
2023-01-02T04:30:41.607Z,81.97
2023-01-02T04:31:41.566Z,82.07
2023-01-02T04:32:41.573Z,81.78
2023-01-02T04:33:41.579Z,81.97
2023-01-02T04:34:41.537Z,82.17
2023-01-02T04:35:41.806Z,81.49
2023-01-02T04:36:41.528Z,81.68
2023-01-02T04:37:41.497Z,81.40
2023-01-02T04:38:41.511Z,81.88
2023-01-02T04:39:41.578Z,82.07
2023-01-02T04:40:41.492Z,82.17
2023-01-02T04:41:41.461Z,82.54
2023-01-02T04:42:41.518Z,81.78
2023-01-02T04:43:41.501Z,82.64
2023-01-02T04:44:41.469Z,82.83
2023-01-02T04:45:41.427Z,82.64
2023-01-02T04:46:41.544Z,82.07
2023-01-02T04:47:41.437Z,81.68
2023-01-02T04:48:41.420Z,81.40
2023-01-02T04:49:41.376Z,81.59
2023-01-02T04:50:41.394Z,81.68
2023-01-02T04:51:41.431Z,81.68
2023-01-02T04:52:41.390Z,81.78
2023-01-02T04:53:41.481Z,81.59
2023-01-02T04:54:41.390Z,81.59
2023-01-02T04:55:41.345Z,81.68
2023-01-02T04:56:41.391Z,82.17
2023-01-02T04:57:41.345Z,82.35
2023-01-02T04:58:41.408Z,82.26
2023-01-02T04:59:41.542Z,81.49
2023-01-02T05:00:41.556Z,82.17
2023-01-02T05:01:41.417Z,81.97
2023-01-02T05:02:41.383Z,81.68
2023-01-02T05:03:41.349Z,81.97
2023-01-02T05:04:41.294Z,81.49
2023-01-02T05:05:41.256Z,81.97
2023-01-02T05:06:41.285Z,82.26
2023-01-02T05:07:41.294Z,81.49
2023-01-02T05:08:41.279Z,81.88
2023-01-02T05:09:41.288Z,82.07
2023-01-02T05:10:41.285Z,81.59
2023-01-02T05:11:41.237Z,82.35
2023-01-02T05:12:41.198Z,82.07
2023-01-02T05:13:41.437Z,82.54
2023-01-02T05:14:41.453Z,81.97
2023-01-02T05:15:41.260Z,81.68
2023-01-02T05:16:41.226Z,82.07
2023-01-02T05:17:41.156Z,81.68
2023-01-02T05:18:41.216Z,82.35
2023-01-02T05:19:41.173Z,82.54
2023-01-02T05:20:41.216Z,81.97
2023-01-02T05:21:41.146Z,81.97
2023-01-02T05:22:41.242Z,81.68
2023-01-02T05:23:41.129Z,82.17
2023-01-02T05:24:41.171Z,82.74
2023-01-02T05:25:41.144Z,82.60
2023-01-02T05:26:41.141Z,82.74
2023-01-02T05:27:41.303Z,82.70
2023-01-02T05:28:41.168Z,82.93
2023-01-02T05:29:41.235Z,82.93
2023-01-02T05:30:41.112Z,82.54
2023-01-02T05:31:41.186Z,82.79
2023-01-02T05:32:41.167Z,82.31
2023-01-02T05:33:41.140Z,82.35
2023-01-02T05:34:41.077Z,82.64
2023-01-02T05:35:41.259Z,83.17
2023-01-02T05:36:41.102Z,84.32
2023-01-02T05:37:41.026Z,83.27
2023-01-02T05:38:41.096Z,82.64
2023-01-02T05:39:41.106Z,83.31
2023-01-02T05:40:41.047Z,83.50
2023-01-02T05:41:40.997Z,83.89
2023-01-02T05:42:41.007Z,83.22
2023-01-02T05:43:41.017Z,83.31
2023-01-02T05:44:40.996Z,82.60
2023-01-02T05:45:40.995Z,83.22
2023-01-02T05:46:41.052Z,82.74
2023-01-02T05:47:40.942Z,82.64
2023-01-02T05:48:40.942Z,83.22
2023-01-02T05:49:40.956Z,82.07
2023-01-02T05:50:40.924Z,82.35
2023-01-02T05:51:40.932Z,82.64
2023-01-02T05:52:45.609Z,82.64
2023-01-02T05:53:40.906Z,82.64
2023-01-02T05:54:40.918Z,82.17
2023-01-02T05:55:40.870Z,81.78
2023-01-02T05:56:41.088Z,81.78
2023-01-02T05:57:40.912Z,81.97
2023-01-02T05:58:40.865Z,81.68
2023-01-02T05:59:41.001Z,81.49
2023-01-02T06:00:40.929Z,81.97
2023-01-02T06:01:41.005Z,81.97
2023-01-02T06:02:47.056Z,81.68
2023-01-02T06:03:40.988Z,81.40
2023-01-02T06:04:40.884Z,81.88
2023-01-02T06:05:40.836Z,82.93
2023-01-02T06:06:41.030Z,81.49
2023-01-02T06:07:40.818Z,81.68
2023-01-02T06:08:40.999Z,81.59
2023-01-02T06:09:40.831Z,81.88
2023-01-02T06:10:40.808Z,82.17
2023-01-02T06:11:40.748Z,81.68
2023-01-02T06:12:40.773Z,81.97
2023-01-02T06:13:40.844Z,81.59
2023-01-02T06:14:40.744Z,82.07
2023-01-02T06:15:40.752Z,82.26
2023-01-02T06:16:40.855Z,81.97
2023-01-02T06:17:40.767Z,82.83
2023-01-02T06:18:40.753Z,82.54
2023-01-02T06:19:40.698Z,82.54
2023-01-02T06:20:40.749Z,82.64
2023-01-02T06:21:40.692Z,82.17
2023-01-02T06:22:40.707Z,82.83
2023-01-02T06:23:40.707Z,82.83
2023-01-02T06:24:40.712Z,82.45
2023-01-02T06:25:40.657Z,82.64
2023-01-02T06:26:40.828Z,82.60
2023-01-02T06:27:40.742Z,82.45
2023-01-02T06:28:40.690Z,82.74
2023-01-02T06:29:40.653Z,83.03
2023-01-02T06:30:40.598Z,82.64
2023-01-02T06:31:43.467Z,82.74
2023-01-02T06:32:40.617Z,82.26
2023-01-02T06:33:40.645Z,82.45
2023-01-02T06:34:40.605Z,82.54
2023-01-02T06:35:40.609Z,83.22
2023-01-02T06:36:40.619Z,83.08
2023-01-02T06:37:40.649Z,82.60
2023-01-02T06:38:40.652Z,82.51
2023-01-02T06:39:40.557Z,83.84
2023-01-02T06:40:40.585Z,83.84
2023-01-02T06:41:40.585Z,83.75
2023-01-02T06:42:40.654Z,83.65
2023-01-02T06:43:40.568Z,83.17
2023-01-02T06:44:40.619Z,83.84
2023-01-02T06:45:40.609Z,84.42
2023-01-02T06:46:40.614Z,83.17
2023-01-02T06:47:40.714Z,83.46
2023-01-02T06:48:40.511Z,83.94
2023-01-02T06:49:40.520Z,82.79
2023-01-02T06:50:40.534Z,82.31
2023-01-02T06:51:40.540Z,82.79
2023-01-02T06:52:40.540Z,82.22
2023-01-02T06:53:40.438Z,82.31
2023-01-02T06:54:40.456Z,82.12
2023-01-02T06:55:40.448Z,82.60
2023-01-02T06:56:40.439Z,82.12
2023-01-02T06:57:40.413Z,82.12
2023-01-02T06:58:40.507Z,82.17
2023-01-02T06:59:40.495Z,81.88
2023-01-02T07:00:40.509Z,81.59
2023-01-02T07:01:40.542Z,81.88
2023-01-02T07:02:40.482Z,82.12
2023-01-02T07:03:40.429Z,81.88
2023-01-02T07:04:40.413Z,81.68
2023-01-02T07:05:40.444Z,82.07
2023-01-02T07:06:40.378Z,82.22
2023-01-02T07:07:40.343Z,81.40
2023-01-02T07:08:40.327Z,81.59
2023-01-02T07:09:40.328Z,81.30
2023-01-02T07:10:40.308Z,81.65
2023-01-02T07:11:40.525Z,81.78
2023-01-02T07:12:40.349Z,81.68
2023-01-02T07:13:40.306Z,82.07
2023-01-02T07:14:40.499Z,81.49
2023-01-02T07:15:40.275Z,82.07
2023-01-02T07:16:40.292Z,81.68
2023-01-02T07:17:40.277Z,81.59
2023-01-02T07:18:40.230Z,82.12
2023-01-02T07:19:40.516Z,81.68
2023-01-02T07:20:40.237Z,81.97
2023-01-02T07:21:40.207Z,81.65
2023-01-02T07:22:40.241Z,81.65
2023-01-02T07:23:40.215Z,82.03
2023-01-02T07:24:40.279Z,82.41
2023-01-02T07:25:44.396Z,82.51
2023-01-02T07:26:40.261Z,81.84
2023-01-02T07:27:40.209Z,81.45
2023-01-02T07:28:40.211Z,81.55
2023-01-02T07:29:40.171Z,82.12
2023-01-02T07:30:40.233Z,82.45
2023-01-02T07:31:40.277Z,82.41
2023-01-02T07:32:40.122Z,81.93
2023-01-02T07:33:40.188Z,82.12
2023-01-02T07:34:40.232Z,81.74
2023-01-02T07:35:40.109Z,82.03
2023-01-02T07:36:40.192Z,82.12
2023-01-02T07:37:40.183Z,82.12
2023-01-02T07:38:40.108Z,82.79
2023-01-02T07:39:40.148Z,82.41
2023-01-02T07:40:40.101Z,82.89
2023-01-02T07:41:40.111Z,82.70
2023-01-02T07:42:40.111Z,82.70
2023-01-02T07:43:40.093Z,82.79
2023-01-02T07:44:40.104Z,82.70
2023-01-02T07:45:43.650Z,82.70
2023-01-02T07:46:40.137Z,82.60
2023-01-02T07:47:40.038Z,82.60
2023-01-02T07:48:40.003Z,82.60
2023-01-02T07:49:40.195Z,82.98
2023-01-02T07:50:40.021Z,82.60
2023-01-02T07:51:39.976Z,82.89
2023-01-02T07:52:39.978Z,82.60
2023-01-02T07:53:40.011Z,82.41
2023-01-02T07:54:39.963Z,82.41
2023-01-02T07:55:39.975Z,81.84
2023-01-02T07:56:39.969Z,82.31
2023-01-02T07:57:39.929Z,82.51
2023-01-02T07:58:39.909Z,82.12
2023-01-02T07:59:39.927Z,82.70
2023-01-02T08:00:39.904Z,82.70
2023-01-02T08:01:39.961Z,82.31
2023-01-02T08:02:40.181Z,82.41
2023-01-02T08:03:40.010Z,82.70
2023-01-02T08:04:39.935Z,82.51
2023-01-02T08:05:39.902Z,82.51
2023-01-02T08:06:39.878Z,82.60
2023-01-02T08:07:44.823Z,81.84
2023-01-02T08:08:39.859Z,82.89
2023-01-02T08:09:39.861Z,82.74
2023-01-02T08:10:39.847Z,82.41
2023-01-02T08:11:39.850Z,82.89
2023-01-02T08:12:39.898Z,82.26
2023-01-02T08:13:39.860Z,82.12
2023-01-02T08:14:39.820Z,82.74
2023-01-02T08:15:39.774Z,81.97
2023-01-02T08:16:39.856Z,82.26
2023-01-02T08:17:39.984Z,81.97
2023-01-02T08:18:39.824Z,82.26
2023-01-02T08:19:39.767Z,82.07
2023-01-02T08:20:39.975Z,81.97
2023-01-02T08:21:39.761Z,82.17
2023-01-02T08:22:39.785Z,82.07
2023-01-02T08:23:39.735Z,82.07
2023-01-02T08:24:39.707Z,82.17
2023-01-02T08:25:39.741Z,81.68
2023-01-02T08:26:39.721Z,82.17
2023-01-02T08:27:39.933Z,81.88
2023-01-02T08:28:40.157Z,82.17
2023-01-02T08:29:39.940Z,82.45
2023-01-02T08:30:39.752Z,82.45
2023-01-02T08:31:43.652Z,82.54
2023-01-02T08:32:39.689Z,82.26
2023-01-02T08:33:39.888Z,82.45
2023-01-02T08:34:39.719Z,82.64
2023-01-02T08:35:39.625Z,81.88
2023-01-02T08:36:39.670Z,82.07
2023-01-02T08:37:39.672Z,81.68
2023-01-02T08:38:39.753Z,82.07
2023-01-02T08:39:39.659Z,81.40
2023-01-02T08:40:39.691Z,82.07
2023-01-02T08:41:39.629Z,81.97
2023-01-02T08:42:39.820Z,81.78
2023-01-02T08:43:39.566Z,81.40
2023-01-02T08:44:39.583Z,80.77
2023-01-02T08:45:39.598Z,80.67
2023-01-02T08:46:42.883Z,79.47
2023-01-02T08:47:39.577Z,78.51
2023-01-02T08:48:39.573Z,78.61
2023-01-02T08:49:39.639Z,78.17
2023-01-02T08:50:39.566Z,77.44
2023-01-02T08:51:39.567Z,75.95
2023-01-02T08:52:39.753Z,75.50
2023-01-02T08:53:39.547Z,73.20
2023-01-02T08:54:39.561Z,72.28
2023-01-02T08:55:39.897Z,71.41
2023-01-02T08:56:39.532Z,70.84
2023-01-02T08:57:39.497Z,70.93
2023-01-02T08:58:39.522Z,70.99
2023-01-02T08:59:39.498Z,72.14
2023-01-02T09:00:39.482Z,72.97
2023-01-02T09:01:39.637Z,74.31
2023-01-02T09:02:39.633Z,74.69
2023-01-02T09:03:39.540Z,75.43
2023-01-02T09:04:39.457Z,74.85
2023-01-02T09:05:39.438Z,74.57
2023-01-02T09:06:39.543Z,74.76
2023-01-02T09:07:39.649Z,75.33
2023-01-02T09:08:39.702Z,76.15
2023-01-02T09:09:39.436Z,76.35
2023-01-02T09:10:39.426Z,76.44
2023-01-02T09:11:39.452Z,76.54
2023-01-02T09:12:39.453Z,76.82
2023-01-02T09:13:39.397Z,76.82
2023-01-02T09:14:39.368Z,77.02
2023-01-02T09:15:39.449Z,77.02
2023-01-02T09:16:39.596Z,75.90
2023-01-02T09:17:39.407Z,75.04
2023-01-02T09:18:39.398Z,74.37
2023-01-02T09:19:39.585Z,74.60
2023-01-02T09:20:39.347Z,73.80
2023-01-02T09:21:39.391Z,74.27
2023-01-02T09:22:39.368Z,75.14
2023-01-02T09:23:39.330Z,75.43
2023-01-02T09:24:39.329Z,75.04
2023-01-02T09:25:39.314Z,75.10
2023-01-02T09:26:39.333Z,75.43
2023-01-02T09:27:39.303Z,75.04
2023-01-02T09:28:39.320Z,74.95
2023-01-02T09:29:39.300Z,75.52
2023-01-02T09:30:39.302Z,74.57
2023-01-02T09:31:39.573Z,73.65
2023-01-02T09:32:39.373Z,73.35
2023-01-02T09:33:39.258Z,73.65
2023-01-02T09:34:39.265Z,73.74
2023-01-02T09:35:39.268Z,72.91
2023-01-02T09:36:39.494Z,72.43
2023-01-02T09:37:39.271Z,71.66
2023-01-02T09:38:39.273Z,72.43
2023-01-02T09:39:39.231Z,72.05
2023-01-02T09:40:39.267Z,71.95
2023-01-02T09:41:39.262Z,71.28
2023-01-02T09:42:39.224Z,71.57
2023-01-02T09:43:39.464Z,71.66
2023-01-02T09:44:39.220Z,71.76
2023-01-02T09:45:39.214Z,71.76
2023-01-02T09:46:39.272Z,72.24
2023-01-02T09:47:39.199Z,72.81
2023-01-02T09:48:39.192Z,72.49
2023-01-02T09:49:39.219Z,72.72
2023-01-02T09:50:39.229Z,72.24
2023-01-02T09:51:39.202Z,71.19
2023-01-02T09:52:39.235Z,71.22
2023-01-02T09:53:39.218Z,70.36
2023-01-02T09:54:39.319Z,70.20
2023-01-02T09:55:39.190Z,69.34
2023-01-02T09:56:39.399Z,68.76
2023-01-02T09:57:39.220Z,68.95
2023-01-02T09:58:39.180Z,68.95
2023-01-02T09:59:39.193Z,69.91
2023-01-02T10:00:39.153Z,70.07
2023-01-02T10:01:39.190Z,70.03
2023-01-02T10:02:39.210Z,70.13
2023-01-02T10:03:39.317Z,72.05
2023-01-02T10:04:39.152Z,72.14
2023-01-02T10:05:39.147Z,71.66
2023-01-02T10:06:39.168Z,71.31
2023-01-02T10:07:39.134Z,71.51
2023-01-02T10:08:39.140Z,70.20
2023-01-02T10:09:39.132Z,69.18
2023-01-02T10:10:39.194Z,68.92
2023-01-02T10:11:39.324Z,68.25
2023-01-02T10:12:39.162Z,67.32
2023-01-02T10:14:18.067Z,66.94
2023-01-02T10:14:44.204Z,66.94
2023-01-02T10:15:39.179Z,66.30
2023-01-02T10:16:39.146Z,64.86
2023-01-02T10:17:39.315Z,65.63
2023-01-02T10:18:39.115Z,65.56
2023-01-02T10:19:39.156Z,63.31
2023-01-02T10:20:39.145Z,63.12
2023-01-02T10:21:39.131Z,63.22
2023-01-02T10:22:39.125Z,64.08
2023-01-02T10:23:39.119Z,63.70
2023-01-02T10:24:39.257Z,65.43
2023-01-02T10:25:39.114Z,64.82
2023-01-02T10:26:39.336Z,64.73
2023-01-02T10:27:39.135Z,65.46
2023-01-02T10:28:39.153Z,65.81
2023-01-02T10:29:39.112Z,65.72
2023-01-02T10:30:39.141Z,66.87
2023-01-02T10:31:39.181Z,66.87
2023-01-02T10:32:39.339Z,67.41
2023-01-02T10:33:39.096Z,67.99
2023-01-02T10:34:39.322Z,69.53
2023-01-02T10:35:39.121Z,69.68
2023-01-02T10:36:39.182Z,69.34
2023-01-02T10:37:39.118Z,68.47
2023-01-02T10:38:39.088Z,68.76
2023-01-02T10:39:39.097Z,68.95
2023-01-02T10:40:39.126Z,69.72
2023-01-02T10:41:39.115Z,69.72
2023-01-02T10:42:39.135Z,68.95
2023-01-02T10:43:39.327Z,68.08
2023-01-02T10:44:39.100Z,67.80
2023-01-02T10:45:39.094Z,68.28
2023-01-02T10:46:39.160Z,68.63
2023-01-02T10:47:39.101Z,69.59
2023-01-02T10:48:39.115Z,69.74
2023-01-02T10:49:39.289Z,70.90
2023-01-02T10:50:39.083Z,71.19
2023-01-02T10:51:39.035Z,72.88
2023-01-02T10:52:39.046Z,71.92
2023-01-02T10:53:39.074Z,71.72
2023-01-02T10:54:42.757Z,72.01
2023-01-02T10:55:39.056Z,72.68
2023-01-02T10:56:39.041Z,72.01
2023-01-02T10:57:39.060Z,72.91
2023-01-02T10:58:39.076Z,72.78
2023-01-02T10:59:39.121Z,72.01
2023-01-02T11:00:39.086Z,72.11
2023-01-02T11:01:39.157Z,71.92
2023-01-02T11:02:39.198Z,71.92
2023-01-02T11:03:39.202Z,72.01
2023-01-02T11:04:39.018Z,71.92
2023-01-02T11:05:39.029Z,72.11
2023-01-02T11:06:40.019Z,72.88
2023-01-02T11:07:39.043Z,73.74
2023-01-02T11:08:38.985Z,73.74
2023-01-02T11:09:38.976Z,73.45
2023-01-02T11:10:38.987Z,73.45
2023-01-02T11:11:38.946Z,73.07
2023-01-02T11:12:39.019Z,72.74
2023-01-02T11:13:38.994Z,73.41
2023-01-02T11:14:39.001Z,74.85
2023-01-02T11:15:38.955Z,74.57
2023-01-02T11:16:39.023Z,73.90
2023-01-02T11:17:38.946Z,73.61
2023-01-02T11:18:38.947Z,73.99
2023-01-02T11:19:38.940Z,74.37
2023-01-02T11:20:39.184Z,73.32
2023-01-02T11:21:38.929Z,73.80
2023-01-02T11:22:38.908Z,73.80
2023-01-02T11:23:38.942Z,73.61
2023-01-02T11:24:38.927Z,73.03
2023-01-02T11:25:38.909Z,73.83
2023-01-02T11:26:38.890Z,73.45
2023-01-02T11:27:38.895Z,73.16
2023-01-02T11:28:38.917Z,72.11
2023-01-02T11:29:38.871Z,72.59
2023-01-02T11:30:38.891Z,72.14
2023-01-02T11:31:38.883Z,71.86
2023-01-02T11:32:38.886Z,72.24
2023-01-02T11:33:38.850Z,71.98
2023-01-02T11:34:38.890Z,70.01
2023-01-02T11:35:38.826Z,69.53
2023-01-02T11:36:38.851Z,69.81
2023-01-02T11:37:38.855Z,69.81
2023-01-02T11:38:38.844Z,68.85
2023-01-02T11:39:38.811Z,69.01
2023-01-02T11:40:38.833Z,69.91
2023-01-02T11:41:39.213Z,69.87
2023-01-02T11:42:38.845Z,69.87
2023-01-02T11:43:38.842Z,69.65
2023-01-02T11:44:38.786Z,70.61
2023-01-02T11:45:38.840Z,70.32
2023-01-02T11:46:39.024Z,71.09
2023-01-02T11:47:38.825Z,71.15
2023-01-02T11:48:38.810Z,71.34
2023-01-02T11:49:38.822Z,72.20
2023-01-02T11:50:39.001Z,73.07
2023-01-02T11:51:38.785Z,71.92
2023-01-02T11:52:38.753Z,72.30
2023-01-02T11:53:38.738Z,72.88
2023-01-02T11:54:38.780Z,72.20
2023-01-02T11:55:38.739Z,72.11
2023-01-02T11:56:38.757Z,72.20
2023-01-02T11:57:38.737Z,73.07
2023-01-02T11:58:38.741Z,71.95
2023-01-02T11:59:38.751Z,71.95
2023-01-02T12:00:38.911Z,72.14
2023-01-02T12:01:38.729Z,71.95
2023-01-02T12:02:38.748Z,71.19
2023-01-02T12:03:38.721Z,71.09
2023-01-02T12:04:38.681Z,71.86
2023-01-02T12:05:38.676Z,71.19
2023-01-02T12:06:38.661Z,71.19
2023-01-02T12:07:38.661Z,71.03
2023-01-02T12:08:44.517Z,71.41
2023-01-02T12:09:38.857Z,70.74
2023-01-02T12:10:38.645Z,70.26
2023-01-02T12:11:38.644Z,69.78
2023-01-02T12:12:38.634Z,69.49
2023-01-02T12:13:38.628Z,69.59
2023-01-02T12:14:38.627Z,69.68
2023-01-02T12:15:38.633Z,69.78
2023-01-02T12:16:38.634Z,69.49
2023-01-02T12:17:38.612Z,68.73
2023-01-02T12:18:38.714Z,69.97
2023-01-02T12:19:38.594Z,69.87
2023-01-02T12:20:38.589Z,70.36
2023-01-02T12:21:38.585Z,68.91
2023-01-02T12:22:38.574Z,68.73
2023-01-02T12:23:38.581Z,69.01
2023-01-02T12:24:38.569Z,69.84
2023-01-02T12:25:38.552Z,69.65
2023-01-02T12:26:38.768Z,70.23
2023-01-02T12:27:38.549Z,71.37
2023-01-02T12:28:38.536Z,70.61
2023-01-02T12:29:47.018Z,70.42
2023-01-02T12:30:38.528Z,70.42
2023-01-02T12:31:38.587Z,70.42
2023-01-02T12:32:38.543Z,70.36
2023-01-02T12:33:38.510Z,70.99
2023-01-02T12:34:38.554Z,70.32
2023-01-02T12:35:38.511Z,69.46
2023-01-02T12:36:38.505Z,69.65
2023-01-02T12:37:38.512Z,70.03
2023-01-02T12:38:38.497Z,70.51
2023-01-02T12:39:38.491Z,71.76
2023-01-02T12:40:38.488Z,71.09
2023-01-02T12:42:00.502Z,70.23
2023-01-02T12:42:38.491Z,70.61
2023-01-02T12:43:38.473Z,71.76
2023-01-02T12:44:38.469Z,72.43
2023-01-02T12:45:38.541Z,72.53
2023-01-02T12:46:38.673Z,72.63
2023-01-02T12:47:38.441Z,72.43
2023-01-02T12:48:38.437Z,71.95
2023-01-02T12:49:38.472Z,71.86
2023-01-02T12:50:38.456Z,71.76
2023-01-02T12:51:38.425Z,70.80
2023-01-02T12:52:38.412Z,70.32